createdAt,value
2023-03-29T00:00:38.705Z,1305.0769
2023-03-29T00:01:40.139Z,1303.1538
2023-03-29T00:02:53.386Z,1300.6364
2023-03-29T00:03:43.066Z,1297.8182
2023-03-29T00:04:44.436Z,1302.0000
2023-03-29T00:05:45.945Z,1305.7693
2023-03-29T00:06:47.284Z,1304.4615
2023-03-29T00:07:48.729Z,1302.1538
2023-03-29T00:08:50.167Z,1303.8462
2023-03-29T00:09:51.563Z,1309.6923
2023-03-29T00:10:52.998Z,1314.0769
2023-03-29T00:11:54.422Z,1317.3846
2023-03-29T00:12:55.848Z,1318.3846
2023-03-29T00:13:57.298Z,1317.6154
2023-03-29T00:14:58.722Z,1316.1538
2023-03-29T00:16:00.145Z,1316.0000
2023-03-29T00:17:01.613Z,1315.5385
2023-03-29T00:18:02.999Z,1314.2307
2023-03-29T00:19:04.443Z,1312.6923
2023-03-29T00:20:05.854Z,1313.9231
2023-03-29T00:21:07.302Z,1314.9231
2023-03-29T00:22:08.741Z,1314.9231
2023-03-29T00:23:10.171Z,1319.3077
2023-03-29T00:24:11.560Z,1317.7693
2023-03-29T00:25:13.074Z,1319.9231
2023-03-29T00:26:14.489Z,1332.0000
2023-03-29T00:27:15.889Z,1342.8462
2023-03-29T00:28:17.336Z,1343.2307
2023-03-29T00:29:18.801Z,1346.3846
2023-03-29T00:30:20.159Z,1347.0000
2023-03-29T00:31:21.646Z,1350.5385
2023-03-29T00:32:23.051Z,1352.6923
2023-03-29T00:33:24.475Z,1353.2307
2023-03-29T00:34:25.899Z,1352.3077
2023-03-29T00:35:27.360Z,1360.5385
2023-03-29T00:36:28.771Z,1367.1538
2023-03-29T00:37:30.217Z,1372.3077
2023-03-29T00:38:31.773Z,1372.5385
2023-03-29T00:39:33.032Z,1374.3636
2023-03-29T00:40:34.466Z,1378.3077
2023-03-29T00:41:35.914Z,1380.1538
2023-03-29T00:42:37.363Z,1379.6154
2023-03-29T00:43:38.749Z,1379.0000
2023-03-29T00:44:40.171Z,1377.4615
2023-03-29T00:45:41.588Z,1375.8462
2023-03-29T00:46:43.117Z,1374.7693
2023-03-29T00:47:44.542Z,1377.0769
2023-03-29T00:48:45.922Z,1375.7693
2023-03-29T00:49:47.300Z,1373.3846
2023-03-29T00:50:48.772Z,1373.6154
2023-03-29T00:51:50.177Z,1373.2307
2023-03-29T00:52:51.602Z,1375.0769
2023-03-29T00:53:53.032Z,1375.0000
2023-03-29T00:54:54.457Z,1376.4615
2023-03-29T00:55:55.886Z,1375.3846
2023-03-29T00:56:57.430Z,1375.5385
2023-03-29T00:57:58.742Z,1374.3077
2023-03-29T00:59:00.172Z,1372.9231
2023-03-29T01:00:01.609Z,1368.7693
2023-03-29T01:01:03.316Z,1367.3077
2023-03-29T01:02:04.503Z,1370.3077
2023-03-29T01:03:05.961Z,1373.0000
2023-03-29T01:04:07.312Z,1373.6923
2023-03-29T01:05:08.719Z,1373.6923
2023-03-29T01:06:10.126Z,1372.7693
2023-03-29T01:07:11.632Z,1371.6154
2023-03-29T01:08:12.992Z,1371.4615
2023-03-29T01:09:14.428Z,1368.0769
2023-03-29T01:10:15.844Z,1366.6154
2023-03-29T01:11:17.524Z,1371.0000
2023-03-29T01:12:18.704Z,1371.8462
2023-03-29T01:13:20.110Z,1365.9231
2023-03-29T01:14:21.542Z,1364.6923
2023-03-29T01:15:23.020Z,1365.3846
2023-03-29T01:16:24.420Z,1364.8462
2023-03-29T01:17:25.919Z,1363.6923
2023-03-29T01:18:27.269Z,1363.0769
2023-03-29T01:19:28.726Z,1364.6923
2023-03-29T01:20:30.133Z,1364.6154
2023-03-29T01:21:31.610Z,1365.5385
2023-03-29T01:22:33.008Z,1363.3846
2023-03-29T01:23:34.431Z,1364.1538
2023-03-29T01:24:35.865Z,1365.1538
2023-03-29T01:25:37.293Z,1365.3077
2023-03-29T01:26:38.722Z,1365.5385
2023-03-29T01:27:40.160Z,1366.0769
2023-03-29T01:28:41.547Z,1365.3846
2023-03-29T01:29:42.992Z,1366.3846
2023-03-29T01:30:44.423Z,1365.7693
2023-03-29T01:31:45.976Z,1365.4615
2023-03-29T01:32:47.293Z,1366.3077
2023-03-29T01:33:48.738Z,1366.0000
2023-03-29T01:34:50.098Z,1363.8462
2023-03-29T01:35:51.589Z,1363.0769
2023-03-29T01:36:52.951Z,1363.9231
2023-03-29T01:37:54.450Z,1360.5385
2023-03-29T01:38:55.817Z,1364.0000
2023-03-29T01:39:57.254Z,1367.1538
2023-03-29T01:40:58.663Z,1367.3077
2023-03-29T01:42:00.102Z,1371.4615
2023-03-29T01:43:01.560Z,1371.6154
2023-03-29T01:44:03.011Z,1372.1538
2023-03-29T01:45:04.384Z,1370.4615
2023-03-29T01:46:05.830Z,1369.8462
2023-03-29T01:47:07.270Z,1366.4615
2023-03-29T01:48:08.691Z,1363.8462
2023-03-29T01:49:10.087Z,1360.4615
2023-03-29T01:50:11.550Z,1363.4615
2023-03-29T01:51:12.947Z,1365.0000
2023-03-29T01:52:14.391Z,1364.0000
2023-03-29T01:53:15.824Z,1362.9231
2023-03-29T01:54:17.244Z,1363.1538
2023-03-29T01:55:18.659Z,1362.4615
2023-03-29T01:56:20.101Z,1360.6923
2023-03-29T01:57:21.536Z,1357.4615
2023-03-29T01:58:22.946Z,1354.1538
2023-03-29T01:59:24.341Z,1351.6923
2023-03-29T02:00:25.796Z,1348.9231
2023-03-29T02:01:27.248Z,1347.3846
2023-03-29T02:02:28.754Z,1349.4615
2023-03-29T02:03:30.140Z,1351.7693
2023-03-29T02:04:31.492Z,1345.4615
2023-03-29T02:05:32.922Z,1343.0000
2023-03-29T02:06:34.445Z,1343.6154
2023-03-29T02:07:35.761Z,1342.3846
2023-03-29T02:08:37.229Z,1340.2307
2023-03-29T02:09:38.630Z,1336.5385
2023-03-29T02:10:40.080Z,1334.1538
2023-03-29T02:11:41.466Z,1332.6154
2023-03-29T02:12:42.929Z,1333.5385
2023-03-29T02:13:44.441Z,1333.0000
2023-03-29T02:14:45.867Z,1332.6923
2023-03-29T02:15:47.386Z,1338.0000
2023-03-29T02:16:48.702Z,1339.3846
2023-03-29T02:17:50.174Z,1337.4615
2023-03-29T02:18:51.543Z,1337.4615
2023-03-29T02:19:52.984Z,1336.3846
2023-03-29T02:20:54.398Z,1337.1538
2023-03-29T02:21:55.813Z,1335.9231
2023-03-29T02:22:57.278Z,1333.8462
2023-03-29T02:23:58.676Z,1332.2307
2023-03-29T02:25:00.132Z,1337.0769
2023-03-29T02:26:01.521Z,1332.5385
2023-03-29T02:27:02.949Z,1332.4615
2023-03-29T02:28:04.384Z,1332.6923
2023-03-29T02:29:05.806Z,1334.3077
2023-03-29T02:30:07.238Z,1341.0769
2023-03-29T02:31:08.687Z,1340.3846
2023-03-29T02:32:10.073Z,1339.6154
2023-03-29T02:33:11.625Z,1338.5385
2023-03-29T02:34:12.977Z,1336.1538
2023-03-29T02:35:14.339Z,1339.7693
2023-03-29T02:36:15.779Z,1345.3077
2023-03-29T02:37:17.193Z,1341.0000
2023-03-29T02:38:18.660Z,1340.1538
2023-03-29T02:39:20.049Z,1337.6923
2023-03-29T02:40:21.490Z,1336.9231
2023-03-29T02:41:22.893Z,1342.6923
2023-03-29T02:42:24.318Z,1341.3846
2023-03-29T02:43:26.139Z,1342.2307
2023-03-29T02:44:27.160Z,1343.1538
2023-03-29T02:45:28.618Z,1340.3846
2023-03-29T02:46:30.055Z,1338.1538
2023-03-29T02:47:31.506Z,1337.9231
2023-03-29T02:48:32.945Z,1336.0769
2023-03-29T02:49:34.309Z,1334.5385
2023-03-29T02:50:35.733Z,1333.3846
2023-03-29T02:51:37.160Z,1330.2307
2023-03-29T02:52:38.590Z,1330.1538
2023-03-29T02:53:40.052Z,1330.6923
2023-03-29T02:54:41.437Z,1330.4615
2023-03-29T02:55:42.964Z,1332.0000
2023-03-29T02:56:44.334Z,1334.0000
2023-03-29T02:57:45.755Z,1340.6923
2023-03-29T02:58:47.183Z,1343.8462
2023-03-29T02:59:48.604Z,1347.0000
2023-03-29T03:00:50.005Z,1349.6154
2023-03-29T03:01:51.512Z,1350.8462
2023-03-29T03:02:52.965Z,1354.5385
2023-03-29T03:03:54.354Z,1356.7693
2023-03-29T03:04:55.757Z,1358.8462
2023-03-29T03:05:57.161Z,1359.6154
2023-03-29T03:06:58.576Z,1360.8462
2023-03-29T03:08:00.013Z,1363.7693
2023-03-29T03:09:02.022Z,1361.7693
2023-03-29T03:10:02.887Z,1362.5385
2023-03-29T03:11:04.507Z,1364.7693
2023-03-29T03:12:05.734Z,1364.5385
2023-03-29T03:13:07.168Z,1363.4615
2023-03-29T03:14:08.606Z,1365.6923
2023-03-29T03:15:10.024Z,1367.0769
2023-03-29T03:16:11.456Z,1364.0769
2023-03-29T03:17:12.859Z,1365.0000
2023-03-29T03:18:14.294Z,1366.1538
2023-03-29T03:19:15.740Z,1365.3846
2023-03-29T03:20:17.147Z,1363.4615
2023-03-29T03:21:18.589Z,1361.3846
2023-03-29T03:22:20.006Z,1363.5385
2023-03-29T03:23:21.489Z,1365.6923
2023-03-29T03:24:22.860Z,1366.1538
2023-03-29T03:25:24.259Z,1368.5385
2023-03-29T03:26:25.692Z,1373.3846
2023-03-29T03:27:27.147Z,1374.8462
2023-03-29T03:28:28.653Z,1375.6923
2023-03-29T03:29:30.006Z,1381.7693
2023-03-29T03:30:31.464Z,1388.6154
2023-03-29T03:31:32.928Z,1390.5385
2023-03-29T03:32:34.327Z,1389.9231
2023-03-29T03:33:35.726Z,1391.3846
2023-03-29T03:34:37.148Z,1391.6923
2023-03-29T03:35:38.589Z,1395.3077
2023-03-29T03:36:39.984Z,1402.1538
2023-03-29T03:37:41.408Z,1412.8462
2023-03-29T03:38:42.869Z,1423.8462
2023-03-29T03:39:44.274Z,1448.3846
2023-03-29T03:40:45.702Z,1464.1538
2023-03-29T03:41:47.155Z,1475.0000
2023-03-29T03:42:48.541Z,1480.5385
2023-03-29T03:43:49.970Z,1480.2307
2023-03-29T03:44:51.427Z,1480.2307
2023-03-29T03:45:52.927Z,1487.6154
2023-03-29T03:46:54.251Z,1488.1538
2023-03-29T03:47:55.675Z,1489.3846
2023-03-29T03:48:57.161Z,1489.6923
2023-03-29T03:49:58.534Z,1488.0769
2023-03-29T03:51:00.052Z,1484.6154
2023-03-29T03:52:01.389Z,1487.0000
2023-03-29T03:53:02.808Z,1491.3077
2023-03-29T03:54:04.292Z,1493.6923
2023-03-29T03:55:05.691Z,1492.9231
2023-03-29T03:56:07.090Z,1496.5385
2023-03-29T03:57:08.528Z,1497.0769
2023-03-29T03:58:09.962Z,1498.4615
2023-03-29T03:59:11.400Z,1497.8462
2023-03-29T04:00:12.804Z,1499.0000
2023-03-29T04:01:14.237Z,1500.2307
2023-03-29T04:02:15.735Z,1503.0000
2023-03-29T04:03:17.263Z,1503.1538
2023-03-29T04:04:18.552Z,1502.8462
2023-03-29T04:05:20.024Z,1501.6923
2023-03-29T04:06:21.363Z,1500.8462
2023-03-29T04:07:22.820Z,1502.8462
2023-03-29T04:08:24.233Z,1505.0000
2023-03-29T04:09:25.696Z,1508.9231
2023-03-29T04:10:27.100Z,1510.7693
2023-03-29T04:11:28.538Z,1506.8462
2023-03-29T04:12:29.981Z,1499.6154
2023-03-29T04:13:31.384Z,1498.6923
2023-03-29T04:14:32.808Z,1506.2307
2023-03-29T04:15:34.304Z,1513.4615
2023-03-29T04:16:35.663Z,1511.1538
2023-03-29T04:17:37.201Z,1513.9231
2023-03-29T04:18:38.593Z,1515.3846
2023-03-29T04:19:39.988Z,1515.7693
2023-03-29T04:20:41.376Z,1522.9231
2023-03-29T04:21:42.823Z,1522.1538
2023-03-29T04:22:44.325Z,1522.0769
2023-03-29T04:23:45.678Z,1519.1538
2023-03-29T04:24:47.100Z,1511.2307
2023-03-29T04:25:48.528Z,1509.2307
2023-03-29T04:26:49.958Z,1508.9231
2023-03-29T04:27:51.389Z,1508.2307
2023-03-29T04:28:52.797Z,1506.7693
2023-03-29T04:29:54.267Z,1507.6154
2023-03-29T04:30:55.658Z,1499.7693
2023-03-29T04:31:57.096Z,1497.8462
2023-03-29T04:32:58.606Z,1495.7693
2023-03-29T04:34:00.514Z,1496.8462
2023-03-29T04:35:01.441Z,1494.6923
2023-03-29T04:36:02.837Z,1497.9231
2023-03-29T04:37:04.220Z,1496.3077
2023-03-29T04:38:05.652Z,1493.7693
2023-03-29T04:39:07.104Z,1488.6923
2023-03-29T04:40:08.540Z,1483.6154
2023-03-29T04:41:10.963Z,1479.0000
2023-03-29T04:42:11.459Z,1475.5385
2023-03-29T04:43:12.804Z,1474.0769
2023-03-29T04:44:14.218Z,1472.6923
2023-03-29T04:45:15.722Z,1466.5385
2023-03-29T04:46:17.148Z,1466.8462
2023-03-29T04:47:18.500Z,1464.4615
2023-03-29T04:48:19.937Z,1461.8462
2023-03-29T04:49:21.802Z,1458.0000
2023-03-29T04:50:22.797Z,1458.3077
2023-03-29T04:51:24.237Z,1457.5385
2023-03-29T04:52:25.662Z,1456.9231
2023-03-29T04:53:27.080Z,1451.9231
2023-03-29T04:54:28.536Z,1448.6923
2023-03-29T04:55:29.925Z,1447.2307
2023-03-29T04:56:31.375Z,1442.7693
2023-03-29T04:57:32.793Z,1440.9231
2023-03-29T04:58:34.230Z,1439.1538
2023-03-29T04:59:35.664Z,1436.3077
2023-03-29T05:00:37.090Z,1433.6923
2023-03-29T05:01:42.738Z,1430.8462
2023-03-29T05:02:39.316Z,1417.8572
2023-03-29T05:03:41.365Z,1291.5000
2023-03-29T05:04:42.873Z,1155.3846
2023-03-29T05:05:44.211Z,1062.6154
2023-03-29T05:06:45.632Z,922.8461
2023-03-29T05:07:47.083Z,850.1539
2023-03-29T05:08:48.471Z,772.0000
2023-03-29T05:09:49.924Z,710.7692
2023-03-29T05:10:51.325Z,798.6154
2023-03-29T05:11:52.772Z,1007.7692
2023-03-29T05:12:54.461Z,1067.4615
2023-03-29T05:13:55.633Z,1042.6154
2023-03-29T05:14:57.013Z,988.9231
2023-03-29T05:15:58.490Z,1021.9231
2023-03-29T05:16:59.905Z,1118.3846
2023-03-29T05:18:01.374Z,1234.3077
2023-03-29T05:19:02.755Z,1262.4615
2023-03-29T05:20:04.182Z,1258.1538
2023-03-29T05:21:05.613Z,1265.6923
2023-03-29T05:22:07.044Z,1283.1538
2023-03-29T05:23:08.426Z,1294.4615
2023-03-29T05:24:09.909Z,1296.0769
2023-03-29T05:25:11.318Z,1281.0769
2023-03-29T05:26:12.729Z,1242.8462
2023-03-29T05:27:14.181Z,1221.4615
2023-03-29T05:28:15.589Z,1225.9231
2023-03-29T05:29:17.017Z,1240.3846
2023-03-29T05:30:18.433Z,1167.0769
2023-03-29T05:31:19.919Z,1045.7693
2023-03-29T05:32:22.097Z,998.5385
2023-03-29T05:33:22.749Z,983.0000
2023-03-29T05:34:24.155Z,960.0769
2023-03-29T05:35:25.545Z,957.8461
2023-03-29T05:36:26.993Z,962.6154
2023-03-29T05:37:28.404Z,978.0769
2023-03-29T05:38:29.829Z,1000.6154
2023-03-29T05:39:31.253Z,1007.3846
2023-03-29T05:40:32.725Z,1014.5385
2023-03-29T05:41:34.116Z,1016.6154
2023-03-29T05:42:35.552Z,1016.2308
2023-03-29T05:43:37.000Z,1014.6923
2023-03-29T05:44:38.454Z,1010.8461
2023-03-29T05:45:39.818Z,1010.7692
2023-03-29T05:46:41.305Z,1012.0769
2023-03-29T05:47:42.847Z,1009.5385
2023-03-29T05:48:44.079Z,1004.6154
2023-03-29T05:49:45.639Z,1006.7692
2023-03-29T05:50:47.040Z,1006.8461
2023-03-29T05:51:48.377Z,1006.5385
2023-03-29T05:52:49.783Z,1008.2308
2023-03-29T05:53:51.215Z,1013.6154
2023-03-29T05:54:52.633Z,1021.0769
2023-03-29T05:55:54.106Z,1011.3077
2023-03-29T05:56:55.534Z,1001.0769
2023-03-29T05:57:56.925Z,985.2308
2023-03-29T05:58:58.363Z,975.2308
2023-03-29T05:59:59.818Z,966.8461
2023-03-29T06:01:01.479Z,958.4615
2023-03-29T06:02:02.737Z,955.6154
2023-03-29T06:03:17.651Z,970.6923
2023-03-29T06:04:05.504Z,984.6667
2023-03-29T06:05:06.996Z,988.4615
2023-03-29T06:06:08.343Z,992.6923
2023-03-29T06:07:09.785Z,1005.3077
2023-03-29T06:08:11.210Z,1006.2308
2023-03-29T06:09:12.628Z,1005.0000
2023-03-29T06:10:14.064Z,1005.6154
2023-03-29T06:11:15.468Z,1003.4615
2023-03-29T06:12:16.931Z,1007.7692
2023-03-29T06:13:18.328Z,1005.6923
2023-03-29T06:14:19.755Z,1004.0000
2023-03-29T06:15:21.313Z,1004.2308
2023-03-29T06:16:22.765Z,1002.8461
2023-03-29T06:17:24.219Z,998.7692
2023-03-29T06:18:25.565Z,995.0769
2023-03-29T06:19:26.974Z,992.6923
2023-03-29T06:20:28.400Z,992.3846
2023-03-29T06:21:29.829Z,989.0769
2023-03-29T06:22:31.250Z,985.7692
2023-03-29T06:23:32.666Z,987.3077
2023-03-29T06:24:34.087Z,981.7692
2023-03-29T06:25:35.514Z,966.4615
2023-03-29T06:26:36.962Z,937.6923
2023-03-29T06:27:38.377Z,931.0000
2023-03-29T06:28:39.782Z,919.2308
2023-03-29T06:29:41.249Z,910.0000
2023-03-29T06:30:42.642Z,902.9231
2023-03-29T06:31:44.154Z,890.5385
2023-03-29T06:32:45.554Z,873.4615
2023-03-29T06:33:46.965Z,863.4615
2023-03-29T06:34:48.362Z,846.1539
2023-03-29T06:35:49.907Z,829.3846
2023-03-29T06:36:51.202Z,819.3846
2023-03-29T06:37:52.644Z,797.4615
2023-03-29T06:38:54.082Z,785.3846
2023-03-29T06:39:55.505Z,775.3077
2023-03-29T06:40:56.948Z,768.0000
2023-03-29T06:41:58.351Z,747.8461
2023-03-29T06:42:59.762Z,732.8461
2023-03-29T06:44:01.218Z,712.3846
2023-03-29T06:45:02.666Z,691.6923
2023-03-29T06:46:04.138Z,681.3846
2023-03-29T06:47:05.577Z,671.6923
2023-03-29T06:48:06.972Z,663.1539
2023-03-29T06:49:08.350Z,660.0769
2023-03-29T06:50:09.798Z,661.0000
2023-03-29T06:51:11.201Z,660.1539
2023-03-29T06:52:12.665Z,665.6923
2023-03-29T06:53:14.060Z,668.7692
2023-03-29T06:54:15.469Z,671.5385
2023-03-29T06:55:16.878Z,671.8461
2023-03-29T06:56:18.335Z,675.5385
2023-03-29T06:57:19.848Z,681.7692
2023-03-29T06:58:21.175Z,689.6154
2023-03-29T06:59:22.628Z,693.6154
2023-03-29T07:00:24.038Z,696.1539
2023-03-29T07:01:25.486Z,698.2308
2023-03-29T07:02:26.947Z,698.0769
2023-03-29T07:03:28.319Z,697.9231
2023-03-29T07:04:29.831Z,702.3077
2023-03-29T07:05:31.174Z,705.6923
2023-03-29T07:06:32.605Z,709.4615
2023-03-29T07:07:34.028Z,709.1539
2023-03-29T07:08:35.442Z,705.4615
2023-03-29T07:09:36.874Z,702.6923
2023-03-29T07:10:38.357Z,700.7692
2023-03-29T07:11:39.747Z,706.1539
2023-03-29T07:12:41.146Z,712.6154
2023-03-29T07:13:42.807Z,714.7692
2023-03-29T07:14:46.242Z,720.3846
2023-03-29T07:15:45.425Z,725.6154
2023-03-29T07:16:47.104Z,727.0769
2023-03-29T07:17:48.289Z,726.3846
2023-03-29T07:18:49.701Z,731.0769
2023-03-29T07:19:51.109Z,736.0000
2023-03-29T07:20:52.594Z,734.7692
2023-03-29T07:21:54.014Z,732.7692
2023-03-29T07:22:55.405Z,731.1539
2023-03-29T07:23:56.820Z,734.6154
2023-03-29T07:24:58.244Z,738.7692
2023-03-29T07:25:59.649Z,744.6154
2023-03-29T07:27:04.486Z,743.7692
2023-03-29T07:28:02.499Z,741.2308
2023-03-29T07:29:03.925Z,741.4615
2023-03-29T07:30:05.348Z,740.6154
2023-03-29T07:31:06.814Z,744.6923
2023-03-29T07:32:08.290Z,750.0000
2023-03-29T07:33:09.782Z,756.3077
2023-03-29T07:34:11.134Z,760.2308
2023-03-29T07:35:12.529Z,761.0769
2023-03-29T07:36:13.993Z,762.5385
2023-03-29T07:37:15.371Z,764.4615
2023-03-29T07:38:16.828Z,765.3846
2023-03-29T07:39:18.206Z,758.9231
2023-03-29T07:40:19.639Z,760.4615
2023-03-29T07:41:21.050Z,763.8461
2023-03-29T07:42:22.493Z,767.3077
2023-03-29T07:43:23.902Z,768.5385
2023-03-29T07:44:25.333Z,772.4615
2023-03-29T07:45:28.587Z,770.0769
2023-03-29T07:46:28.225Z,769.4615
2023-03-29T07:47:29.649Z,767.2308
2023-03-29T07:48:31.024Z,769.6154
2023-03-29T07:49:32.464Z,770.6154
2023-03-29T07:50:33.877Z,771.5385
2023-03-29T07:51:35.315Z,769.6923
2023-03-29T07:52:36.735Z,773.0000
2023-03-29T07:53:38.174Z,770.6923
2023-03-29T07:54:39.600Z,774.4615
2023-03-29T07:55:41.001Z,775.3077
2023-03-29T07:56:42.449Z,774.8461
2023-03-29T07:57:43.857Z,777.0769
2023-03-29T07:58:45.297Z,781.6154
2023-03-29T07:59:46.723Z,788.6154
2023-03-29T08:00:48.151Z,796.0769
2023-03-29T08:01:49.567Z,799.8461
2023-03-29T08:02:51.025Z,813.6923
2023-03-29T08:03:52.550Z,823.1539
2023-03-29T08:04:54.032Z,823.5385
2023-03-29T08:05:55.283Z,814.9231
2023-03-29T08:06:56.695Z,803.1539
2023-03-29T08:07:58.125Z,795.0000
2023-03-29T08:08:59.554Z,795.0769
2023-03-29T08:10:01.001Z,797.6154
2023-03-29T08:11:02.585Z,805.0000
2023-03-29T08:12:03.822Z,790.3077
2023-03-29T08:13:05.257Z,709.9231
2023-03-29T08:14:06.710Z,703.6154
2023-03-29T08:15:08.194Z,703.4615
2023-03-29T08:16:09.542Z,685.5385
2023-03-29T08:17:11.050Z,652.6923
2023-03-29T08:18:12.470Z,627.3077
2023-03-29T08:19:13.810Z,686.3077
2023-03-29T08:20:15.249Z,715.3077
2023-03-29T08:21:16.665Z,720.4615
2023-03-29T08:22:18.102Z,719.1539
2023-03-29T08:23:19.538Z,720.4615
2023-03-29T08:24:21.174Z,718.0000
2023-03-29T08:25:22.383Z,717.6923
2023-03-29T08:26:23.803Z,717.6923
2023-03-29T08:27:25.214Z,723.5385
2023-03-29T08:28:26.684Z,727.0769
2023-03-29T08:29:28.082Z,723.7692
2023-03-29T08:30:29.519Z,694.5385
2023-03-29T08:31:31.004Z,669.3077
2023-03-29T08:32:32.383Z,607.5385
2023-03-29T08:33:33.809Z,554.6154
2023-03-29T08:34:35.205Z,516.1539
2023-03-29T08:35:36.662Z,499.4615
2023-03-29T08:36:38.060Z,511.8462
2023-03-29T08:37:39.491Z,519.5385
2023-03-29T08:38:40.986Z,519.6154
2023-03-29T08:39:42.359Z,525.0769
2023-03-29T08:40:43.761Z,529.8461
2023-03-29T08:41:45.171Z,532.6154
2023-03-29T08:42:46.596Z,535.7692
2023-03-29T08:43:48.050Z,542.1539
2023-03-29T08:44:49.470Z,547.6154
2023-03-29T08:45:51.236Z,552.9231
2023-03-29T08:46:52.358Z,556.2308
2023-03-29T08:47:53.818Z,557.6154
2023-03-29T08:48:55.197Z,558.9231
2023-03-29T08:49:56.597Z,561.0000
2023-03-29T08:50:58.022Z,560.6154
2023-03-29T08:51:59.451Z,561.4615
2023-03-29T08:53:00.866Z,564.1539
2023-03-29T08:54:02.326Z,563.4615
2023-03-29T08:55:03.732Z,562.6923
2023-03-29T08:56:05.201Z,560.8461
2023-03-29T08:57:06.589Z,561.3846
2023-03-29T08:58:08.004Z,562.6923
2023-03-29T08:59:09.483Z,562.6923
2023-03-29T09:00:10.867Z,563.0000
2023-03-29T09:01:12.344Z,561.2308
2023-03-29T09:02:13.749Z,560.7692
2023-03-29T09:03:15.213Z,561.3077
2023-03-29T09:04:16.605Z,560.2308
2023-03-29T09:05:18.049Z,563.0000
2023-03-29T09:06:19.454Z,563.0769
2023-03-29T09:07:20.889Z,563.0769
2023-03-29T09:08:22.302Z,559.5385
2023-03-29T09:09:23.750Z,559.6154
2023-03-29T09:10:25.183Z,558.3846
2023-03-29T09:11:26.627Z,557.7692
2023-03-29T09:12:28.013Z,558.6923
2023-03-29T09:13:29.535Z,556.7692
2023-03-29T09:14:30.873Z,559.7692
2023-03-29T09:15:32.391Z,560.7692
2023-03-29T09:16:33.764Z,559.4615
2023-03-29T09:17:35.186Z,556.7692
2023-03-29T09:18:36.632Z,557.6923
2023-03-29T09:19:38.030Z,555.6923
2023-03-29T09:20:39.516Z,554.2308
2023-03-29T09:21:40.872Z,558.3846
2023-03-29T09:22:42.313Z,559.7692
2023-03-29T09:23:43.744Z,561.7692
2023-03-29T09:24:45.177Z,556.3077
2023-03-29T09:25:53.554Z,555.7692
2023-03-29T09:26:48.041Z,555.7500
2023-03-29T09:27:49.461Z,553.7692
2023-03-29T09:28:50.896Z,553.6154
2023-03-29T09:29:52.299Z,555.3846
2023-03-29T09:30:53.750Z,555.1539
2023-03-29T09:31:55.153Z,554.3846
2023-03-29T09:32:56.652Z,554.0769
2023-03-29T09:33:57.994Z,559.5385
2023-03-29T09:34:59.444Z,559.3846
2023-03-29T09:36:00.899Z,559.6923
2023-03-29T09:37:02.272Z,558.6154
2023-03-29T09:38:03.702Z,556.1539
2023-03-29T09:39:05.157Z,557.8461
2023-03-29T09:40:06.568Z,558.3846
2023-03-29T09:41:07.997Z,557.7692
2023-03-29T09:42:09.494Z,556.2308
2023-03-29T09:43:10.853Z,550.0000
2023-03-29T09:44:20.773Z,541.6923
2023-03-29T09:45:13.718Z,538.6667
2023-03-29T09:46:15.216Z,538.6923
2023-03-29T09:47:16.547Z,540.1539
2023-03-29T09:48:17.957Z,541.0769
2023-03-29T09:49:19.409Z,536.4615
2023-03-29T09:50:30.960Z,536.7692
2023-03-29T09:51:22.342Z,537.2500
2023-03-29T09:52:23.690Z,540.9231
2023-03-29T09:53:25.126Z,550.0000
2023-03-29T09:54:26.534Z,558.9231
2023-03-29T09:55:27.967Z,563.7692
2023-03-29T09:56:29.400Z,564.0000
2023-03-29T09:57:30.943Z,567.3846
2023-03-29T09:58:32.239Z,570.4615
2023-03-29T09:59:33.684Z,569.9231
2023-03-29T10:00:35.105Z,569.4615
2023-03-29T10:01:36.553Z,572.8461
2023-03-29T10:02:38.036Z,579.6923
2023-03-29T10:03:39.404Z,589.7692
2023-03-29T10:04:40.881Z,603.1539
2023-03-29T10:05:42.245Z,601.0000
2023-03-29T10:06:43.676Z,603.4615
2023-03-29T10:07:45.149Z,608.6154
2023-03-29T10:08:46.522Z,613.6154
2023-03-29T10:09:47.980Z,615.6154
2023-03-29T10:10:49.392Z,617.8461
2023-03-29T10:11:50.875Z,622.6154
2023-03-29T10:12:52.256Z,629.2308
2023-03-29T10:13:53.700Z,634.6154
2023-03-29T10:14:55.193Z,642.6923
2023-03-29T10:15:56.549Z,644.5385
2023-03-29T10:16:58.046Z,649.1539
2023-03-29T10:17:59.607Z,653.0769
2023-03-29T10:19:00.932Z,658.9231
2023-03-29T10:20:04.217Z,662.6154
2023-03-29T10:21:04.146Z,667.0769
2023-03-29T10:22:05.223Z,667.4615
2023-03-29T10:23:06.648Z,670.5385
2023-03-29T10:24:08.071Z,672.2308
2023-03-29T10:25:09.491Z,674.0769
2023-03-29T10:26:10.910Z,673.0000
2023-03-29T10:27:12.325Z,672.8461
2023-03-29T10:28:13.764Z,680.4615
2023-03-29T10:29:15.169Z,683.4615
2023-03-29T10:30:16.626Z,688.4615
2023-03-29T10:31:18.075Z,691.0769
2023-03-29T10:32:19.483Z,690.9231
2023-03-29T10:33:20.930Z,688.5385
2023-03-29T10:34:22.319Z,691.6923
2023-03-29T10:35:23.742Z,696.6923
2023-03-29T10:36:25.173Z,704.0769
2023-03-29T10:37:26.613Z,705.6923
2023-03-29T10:38:28.037Z,703.5385
2023-03-29T10:39:29.446Z,702.8461
2023-03-29T10:40:30.947Z,702.3846
2023-03-29T10:41:32.305Z,701.2308
2023-03-29T10:42:33.754Z,702.0000
2023-03-29T10:43:35.170Z,701.9231
2023-03-29T10:44:36.638Z,706.4615
2023-03-29T10:45:38.043Z,710.9231
2023-03-29T10:46:39.496Z,711.5385
2023-03-29T10:47:40.930Z,714.1539
2023-03-29T10:48:42.309Z,713.6154
2023-03-29T10:49:43.741Z,715.9231
2023-03-29T10:50:45.165Z,718.3846
2023-03-29T10:51:46.593Z,721.9231
2023-03-29T10:52:48.022Z,723.3077
2023-03-29T10:53:49.434Z,726.3846
2023-03-29T10:54:50.891Z,733.8461
2023-03-29T10:55:52.309Z,737.2308
2023-03-29T10:56:53.739Z,744.7692
2023-03-29T10:57:55.182Z,750.3077
2023-03-29T10:58:56.625Z,755.6923
2023-03-29T10:59:58.042Z,758.1539
2023-03-29T11:00:59.491Z,761.5385
2023-03-29T11:02:00.910Z,764.1539
2023-03-29T11:03:02.377Z,771.0000
2023-03-29T11:04:03.873Z,772.7692
2023-03-29T11:05:05.211Z,771.1539
2023-03-29T11:06:06.597Z,775.8461
2023-03-29T11:07:08.062Z,775.1539
2023-03-29T11:08:09.486Z,777.3846
2023-03-29T11:09:10.886Z,782.3077
2023-03-29T11:10:12.369Z,784.5385
2023-03-29T11:11:13.739Z,788.5385
2023-03-29T11:12:16.423Z,794.9231
2023-03-29T11:13:16.588Z,798.9231
2023-03-29T11:14:18.032Z,802.4615
2023-03-29T11:15:19.445Z,801.3077
2023-03-29T11:16:20.998Z,800.6154
2023-03-29T11:17:22.390Z,800.1539
2023-03-29T11:18:23.739Z,803.2308
2023-03-29T11:19:25.177Z,805.3846
2023-03-29T11:20:26.573Z,807.3077
2023-03-29T11:21:28.069Z,805.4615
2023-03-29T11:22:29.431Z,799.0769
2023-03-29T11:23:30.866Z,793.2308
2023-03-29T11:24:32.286Z,788.7692
2023-03-29T11:25:33.709Z,783.6154
2023-03-29T11:26:35.205Z,782.7692
2023-03-29T11:27:36.582Z,781.4615
2023-03-29T11:28:37.988Z,781.7692
2023-03-29T11:29:39.432Z,781.5385
2023-03-29T11:30:40.845Z,781.1539
2023-03-29T11:31:42.344Z,782.0000
2023-03-29T11:32:43.725Z,782.9231
2023-03-29T11:33:45.157Z,787.3846
2023-03-29T11:34:46.530Z,794.9231
2023-03-29T11:35:48.131Z,797.6154
2023-03-29T11:36:49.389Z,800.3846
2023-03-29T11:37:50.825Z,804.6154
2023-03-29T11:38:52.242Z,806.7692
2023-03-29T11:39:53.690Z,811.1539
2023-03-29T11:40:55.094Z,812.5385
2023-03-29T11:41:56.564Z,813.2308
2023-03-29T11:42:57.950Z,817.6154
2023-03-29T11:43:59.375Z,820.7692
2023-03-29T11:45:00.810Z,821.1539
2023-03-29T11:46:02.277Z,821.6923
2023-03-29T11:47:03.741Z,823.9231
2023-03-29T11:48:05.176Z,825.3846
2023-03-29T11:49:06.518Z,828.8461
2023-03-29T11:50:07.945Z,831.0769
2023-03-29T11:51:09.365Z,827.0769